• Join FlightAware (Why Join?)
  • Login
  • US Flag 
10:17AM EDT


 

Airport Tracker/Info


-or-


 

Live Flight TrackerFlight Track Log ✈ N745VJ ✈ 26-Apr-2013 ✈ KJFK - KCLT

Flight Track Log - Related Links

Times and Time Zones

All times are in EDT time to prevent confusion due to time zone crossing. See the N745VJ flight status page for this flight to view local times or setup timezone preferences in your user account.

Time Position Orientation Groundspeed Altitude Reporting Facility
EDT Latitude Longitude Course Direction KTS MPH feet Rate Location/Type
10:31AM 40.6667 -73.7167 246° West 214 246 2,700  Level New York TRACON
10:32AM 40.6333 -73.6667 131° Southeast 263 303 4,600 1,680 Climbing New York TRACON
10:33AM 40.4476 -74.0787 229° Southwest  Level FlightAware Approximate
10:33AM 40.5667 -73.7167 210° Southwest 250 288 6,000  Level New York TRACON
10:34AM 40.3795 -74.1807 229° Southwest  Level FlightAware Approximate
10:34AM 40.5333 -73.7833 237° Southwest 275 316 8,700  Level New York TRACON
10:35AM 40.3149 -74.2864 232° Southwest  Level FlightAware Approximate
10:35AM 40.4833 -73.8667 232° Southwest 295 339 11,000  Level New York TRACON
10:36AM 40.2483 -74.3885 246° West  Level FlightAware Approximate
10:36AM 40.4333 -73.9667 237° Southwest 321 369 11,000  Level New York TRACON
10:37AM 40.4000 -74.0667 246° West 326 375 13,600 1,920 Climbing New York TRACON
10:38AM 40.3522 -74.1725 239° Southwest 333 383 15,000 1,140 Climbing New York Center
10:39AM 40.3008 -74.2869 240° Southwest 338 389 16,000 840 Climbing New York Center
10:40AM 40.2561 -74.3853 239° Southwest 338 389 16,800 540 Climbing New York Center
10:41AM 40.2117 -74.4783 238° Southwest 343 395 17,100 1,320 Climbing New York Center
10:42AM 40.1928 -74.6131 260° West 338 389 19,400 2,160 Climbing New York Center
10:43AM 40.1844 -74.7375 265° West 343 395 21,600 1,980 Climbing New York Center
10:44AM 40.1717 -74.8700 263° West 355 409 23,500 1,860 Climbing New York Center
10:45AM 40.1628 -75.0025 265° West 367 422 25,300 1,680 Climbing New York Center
10:46AM 40.1514 -75.1431 264° West 379 436 26,900 1,620 Climbing New York Center
10:47AM 40.1397 -75.2836 264° West 386 444 28,600 1,380 Climbing New York Center
10:48AM 40.0992 -75.4194 249° West 391 450 29,800 1,140 Climbing New York Center
10:49AM 40.0194 -75.5361 228° Southwest 404 465 31,000 1,500 Climbing New York Center
10:50AM 39.9353 -75.6522 227° Southwest 430 495 32,800 1,560 Climbing New York Center
10:51AM 39.8597 -75.7686 230° Southwest 436 502 34,200 1,020 Climbing New York Center
10:52AM 39.7858 -75.8847 230° Southwest 436 502 34,900 1,080 Climbing New York Center
10:54AM 39.6394 -76.1197 231° Southwest 420 483 37,500 1,020 Climbing Washington Center
10:55AM 39.5639 -76.2375 230° Southwest 420 483 38,000 240 Climbing Washington Center
10:56AM 39.4819 -76.3633 230° Southwest 420 483 38,000  Level Washington Center
10:57AM 39.4083 -76.4781 230° Southwest 425 489 38,000  Level Washington Center
10:58AM 39.3303 -76.5925 229° Southwest 425 489 38,000  Level Washington Center
10:59AM 39.2583 -76.7067 231° Southwest 425 489 38,000  Level Washington Center
11:00AM 39.1844 -76.8206 230° Southwest 420 483 38,100  Climbing Washington Center
11:01AM 39.1122 -76.9319 230° Southwest 420 483 38,100 -60 Level Washington Center
11:02AM 39.0358 -77.0453 229° Southwest 420 483 38,000 -60 Descending Washington Center
11:03AM 38.9492 -77.1450 222° Southwest 420 483 38,000  Level Washington Center
11:04AM 38.8583 -77.2417 220° Southwest 420 483 38,100  Climbing Washington Center
11:05AM 38.7694 -77.3383 220° Southwest 425 489 38,100 -60 Level Washington Center
11:06AM 38.6825 -77.4347 221° Southwest 425 489 38,000 -60 Descending Washington Center
11:07AM 38.6039 -77.5203 220° Southwest 425 489 38,000  Level Washington Center
11:08AM 38.5147 -77.6189 221° Southwest 425 489 38,000  Level Washington Center
11:09AM 38.4236 -77.7144 219° Southwest 420 483 38,000  Level Washington Center
11:10AM 38.3342 -77.8097 220° Southwest 420 483 38,000  Level Washington Center
11:11AM 38.2447 -77.9078 221° Southwest 425 489 38,100  Climbing Washington Center
11:12AM 38.1553 -78.0081 221° Southwest 425 489 38,100  Level Washington Center
11:13AM 38.0592 -78.1078 219° Southwest 431 496 38,100 -60 Level Washington Center
11:14AM 37.9800 -78.2106 226° Southwest 426 490 38,000 -60 Descending Washington Center
11:15AM 37.9003 -78.3208 228° Southwest 421 484 38,000  Level Washington Center
11:16AM 37.8139 -78.4464 229° Southwest 435 501 38,000  Level Washington Center
11:17AM 37.7361 -78.5564 228° Southwest 430 495 38,100  Climbing Washington Center
11:18AM 37.6606 -78.6664 229° Southwest 424 488 38,000 -60 Descending Washington Center
11:19AM 37.5803 -78.7783 228° Southwest 424 488 38,000  Level Washington Center
11:20AM 37.5044 -78.8850 228° Southwest 424 488 38,000  Level Washington Center
11:21AM 37.4350 -78.9842 229° Southwest 424 488 38,000  Level Washington Center
11:22AM 37.3567 -79.0906 227° Southwest 424 488 38,000  Level Washington Center
11:23AM 37.2783 -79.1992 228° Southwest 424 488 38,000  Level Washington Center
11:24AM 37.1881 -79.2939 220° Southwest 424 488 38,000 -300 Level Washington Center
11:25AM 37.0853 -79.3750 212° Southwest 430 495 37,400 -840 Descending Washington Center
11:26AM 36.9844 -79.4583 213° Southwest 440 506 36,400 -1,320 Descending Washington Center
11:27AM 36.8708 -79.5514 213° Southwest 447 514 34,900 -2,100 Descending Washington Center
11:29AM 36.6622 -79.7194 213° Southwest 447 514 30,200 -2,400 Descending Atlanta Center
11:30AM 36.5608 -79.8025 213° Southwest 447 514 27,800 -2,400 Descending Atlanta Center
11:31AM 36.4736 -79.8744 214° Southwest 436 502 25,400 -2,400 Descending Atlanta Center
11:32AM 36.3781 -79.9514 213° Southwest 424 488 23,000 -1,740 Descending Atlanta Center
11:33AM 36.2908 -80.0231 214° Southwest 407 468 22,000 -600 Descending Atlanta Center
11:34AM 36.2017 -80.0994 215° Southwest 401 461 21,900 -1,380 Descending Atlanta Center
11:35AM 36.1042 -80.1814 214° Southwest 396 456 19,300 -2,340 Descending Atlanta Center
11:36AM 36.0186 -80.2547 215° Southwest 391 450 17,300 -2,280 Descending Atlanta Center
11:37AM 35.9558 -80.3114 216° Southwest 370 426 15,400 -1,920 Descending Atlanta Center
11:37AM 35.9536 -80.3117 186° South 386 444 15,400 -1,920 Level Atlanta Center
11:38AM 35.8603 -80.3928 215° Southwest 380 437 13,000 -1,800 Descending Atlanta Center
11:38AM 35.8278 -80.4250 219° Southwest 339 390 13,000 -300 Level Atlanta Center
11:39AM 35.7808 -80.4603 211° Southwest 346 398 12,700 -1,020 Descending Atlanta Center
11:39AM 35.7586 -80.4817 218° Southwest 280 322 12,000 -1,500 Descending Atlanta Center
11:40AM 35.7136 -80.5169 212° Southwest 303 349 11,200 -900 Descending Atlanta Center
11:40AM 35.6811 -80.5439 214° Southwest 285 328 11,000 -240 Descending Atlanta Center
11:41AM 35.6483 -80.5708 214° Southwest 297 342 11,000 -240 Level Atlanta Center
11:42AM 35.6158 -80.6003 216° Southwest 289 333 10,800 -900 Descending Atlanta Center
11:42AM 35.5853 -80.6244 213° Southwest 297 342 10,100 -1,620 Descending Atlanta Center
11:43AM 35.5486 -80.6542 213° Southwest 283 326 9,200 -1,140 Descending Atlanta Center
11:43AM 35.5178 -80.6783 213° Southwest 297 342 9,000 -240 Descending Atlanta Center
11:44AM 35.4853 -80.7078 216° Southwest 280 322 9,000  Level Atlanta Center
11:44AM 35.4547 -80.7319 213° Southwest 292 336 9,000  Level Atlanta Center
11:45AM 35.4181 -80.7642 216° Southwest 280 322 9,000  Level Atlanta Center
11:45AM 35.3914 -80.7856 213° Southwest 287 330 9,000 60 Level Atlanta Center
11:45AM 35.3547 -80.8150 213° Southwest 281 323 9,100  Climbing Atlanta Center
11:46AM 35.3322 -80.8336 214° Southwest 287 330 9,000 -120 Descending Atlanta Center
11:47AM 35.2758 -80.8383 184° South 290 334 9,000 -240 Level Atlanta Center
11:48AM 35.1964 -80.8311 176° South 290 334 8,700 -900 Descending Atlanta Center
11:49AM 35.1189 -80.8139 170° South 284 327 7,200 -1,380 Descending Atlanta Center
11:50AM 35.0369 -80.7969 170° South 266 306 6,000 -960 Descending Atlanta Center
11:51AM 35.0117 -80.8689 247° West 227 261 5,300 -720 Descending Atlanta Center
11:52AM 35.0361 -80.9236 299° West 188 216 4,600 -720 Descending Atlanta Center